This demonstration page uses our WeatherBlox Daily Observations layout. Learn more.

Hourly Observations for October 19, 2019

Temp ( °F °C ) Dew Point ( °F °C ) Humidity (%) Winds ( mph kmh ) Pressure ( in mb ) Visibility ( mi km ) Precip ( " mm )
12:54 am 00:54 Cloudy with Light Rain 59 15 47 8.3 64 64 WNW 12 19 29.71 1006 10 16.09344 0.001 0.001
1:54 am 01:54 Cloudy with Light Rain 53 11.7 48 8.9 83 83 NNW 15 24 29.68 1005 8 12.874752 0.1 2.54
2:54 am 02:54 Cloudy 53 11.7 47 8.3 80 80 N 3 6 29.71 1006 10 16.09344 0.01 0.254
3:54 am 03:54 Cloudy with Light Rain 52 11.1 48 8.9 86 86 Calm 29.71 1006 10 16.09344 0.001 0.001
4:54 am 04:54 Cloudy 52 11.1 47 8.3 83 83 W 6 9 29.74 1007 10 16.09344 0.001 0.001
5:54 am 05:54 Cloudy 52 11.1 46 7.8 80 80 NW 7 11 29.74 1007 10 16.09344 0 0
6:54 am 06:54 Mostly Clear 50 10 45 7.2 83 83 Calm 29.77 1008 10 16.09344 0 0
7:54 am 07:54 Sunny 49 9.4 44 6.7 83 83 WNW 5 7 29.8 1009 10 16.09344 0 0
8:54 am 08:54 Sunny 50 10 43 6.1 77 77 NNW 3 6 29.8 1009 10 16.09344 0 0
9:54 am 09:54 Sunny 56 13.3 45 7.2 67 67 NW 10 17 29.83 1010 10 16.09344 0 0
10:54 am 10:54 Sunny 59 15 44 6.7 58 58 NNW 5 7 29.83 1010 10 16.09344 0 0
11:54 am 11:54 Sunny 63 17.2 43 6.1 48 48 Calm 29.8 1009 10 16.09344 0 0
12:54 pm 12:54 Sunny 65 18.3 41 5 42 42 VRB 7 11 29.8 1009 10 16.09344 0 0
1:54 pm 13:54 Sunny 67 19.4 36 2.2 32 32 NW 9 15 29.77 1008 10 16.09344 0 0
2:54 pm 14:54 Sunny 69 20.6 33 0.6 26 26 NW 8 13 29.77 1008 10 16.09344 0 0
3:54 pm 15:54 Sunny 69 20.6 33 0.6 26 26 NNE 7 11 29.74 1007 10 16.09344 0 0
4:54 pm 16:54 Sunny 70 21.1 32 0 25 25 Calm 29.74 1007 10 16.09344 0 0
5:54 pm 17:54 Sunny 66 18.9 32 0 28 28 Calm 29.77 1008 10 16.09344 0 0
6:54 pm 18:54 Clear 59 15 36 2.2 42 42 SSW 5 7 29.77 1008 10 16.09344 0 0
7:54 pm 19:54 Clear 55 12.8 37 2.8 51 51 Calm 29.8 1009 10 16.09344 0 0
8:54 pm 20:54 Clear 52 11.1 40 4.4 64 64 Calm 29.8 1009 10 16.09344 0 0
9:54 pm 21:54 Clear 52 11.1 38 3.3 59 59 SSE 7 11 29.8 1009 10 16.09344 0 0
10:54 pm 22:54 Clear 51 10.6 37 2.8 59 59 SSW 3 6 29.8 1009 10 16.09344 0 0
11:54 pm 23:54 Clear 47 8.3 37 2.8 69 69 SSE 5 7 29.8 1009 10 16.09344 0 0

Powered by AerisWeather